sensor_id;sensor_type;location;lat;lon;timestamp;pressure;altitude;pressure_sealevel;temperature;humidity
74960;BME280;63518;49.572;1.106;2023-02-24T00:02:01;99639.00;;;4.60;81.49
74960;BME280;63518;49.572;1.106;2023-02-24T00:04:37;99641.19;;;4.46;81.83
74960;BME280;63518;49.572;1.106;2023-02-24T00:07:07;99636.00;;;4.33;81.80
74960;BME280;63518;49.572;1.106;2023-02-24T00:09:37;99629.81;;;4.37;83.06
74960;BME280;63518;49.572;1.106;2023-02-24T00:12:09;99635.84;;;4.51;81.73
74960;BME280;63518;49.572;1.106;2023-02-24T00:14:40;99638.00;;;4.37;82.06
74960;BME280;63518;49.572;1.106;2023-02-24T00:17:08;99623.78;;;4.35;82.67
74960;BME280;63518;49.572;1.106;2023-02-24T00:19:36;99627.78;;;4.45;81.74
74960;BME280;63518;49.572;1.106;2023-02-24T00:22:06;99617.19;;;4.48;83.24
74960;BME280;63518;49.572;1.106;2023-02-24T00:24:34;99612.50;;;4.32;82.21
74960;BME280;63518;49.572;1.106;2023-02-24T00:27:04;99592.66;;;4.20;83.25
74960;BME280;63518;49.572;1.106;2023-02-24T00:29:38;99619.03;;;4.43;82.41
74960;BME280;63518;49.572;1.106;2023-02-24T00:32:07;99618.03;;;4.49;82.81
74960;BME280;63518;49.572;1.106;2023-02-24T00:34:40;99619.09;;;4.48;82.97
74960;BME280;63518;49.572;1.106;2023-02-24T00:37:11;99615.00;;;4.62;83.30
74960;BME280;63518;49.572;1.106;2023-02-24T00:39:45;99581.69;;;4.31;82.70
74960;BME280;63518;49.572;1.106;2023-02-24T00:42:13;99592.66;;;4.48;82.96
74960;BME280;63518;49.572;1.106;2023-02-24T00:44:45;99586.31;;;4.76;82.10
74960;BME280;63518;49.572;1.106;2023-02-24T00:47:14;99591.81;;;4.81;81.30
74960;BME280;63518;49.572;1.106;2023-02-24T00:49:45;99591.59;;;4.83;81.78
74960;BME280;63518;49.572;1.106;2023-02-24T00:52:18;99600.38;;;4.68;82.51
74960;BME280;63518;49.572;1.106;2023-02-24T00:54:47;99588.91;;;5.05;81.86
74960;BME280;63518;49.572;1.106;2023-02-24T00:57:15;99572.81;;;4.70;82.36
74960;BME280;63518;49.572;1.106;2023-02-24T00:59:47;99570.41;;;4.73;81.37
74960;BME280;63518;49.572;1.106;2023-02-24T01:02:18;99559.16;;;4.70;81.37
74960;BME280;63518;49.572;1.106;2023-02-24T01:04:46;99570.06;;;4.86;82.01
74960;BME280;63518;49.572;1.106;2023-02-24T01:07:16;99573.38;;;4.88;81.71
74960;BME280;63518;49.572;1.106;2023-02-24T01:09:43;99565.94;;;4.84;81.20
74960;BME280;63518;49.572;1.106;2023-02-24T01:12:11;99558.88;;;5.05;81.03
74960;BME280;63518;49.572;1.106;2023-02-24T01:14:58;99569.66;;;4.94;80.90
74960;BME280;63518;49.572;1.106;2023-02-24T01:17:26;99549.38;;;4.74;80.45
74960;BME280;63518;49.572;1.106;2023-02-24T01:19:54;99542.44;;;4.83;81.03
74960;BME280;63518;49.572;1.106;2023-02-24T01:22:26;99540.84;;;4.87;81.34
74960;BME280;63518;49.572;1.106;2023-02-24T01:24:54;99547.50;;;4.91;80.12
74960;BME280;63518;49.572;1.106;2023-02-24T01:27:22;99548.16;;;4.64;81.04
74960;BME280;63518;49.572;1.106;2023-02-24T01:29:49;99555.19;;;4.77;81.52
74960;BME280;63518;49.572;1.106;2023-02-24T01:32:18;99522.59;;;4.54;81.14
74960;BME280;63518;49.572;1.106;2023-02-24T01:34:50;99537.06;;;4.54;80.25
74960;BME280;63518;49.572;1.106;2023-02-24T01:37:19;99532.94;;;4.69;80.51
74960;BME280;63518;49.572;1.106;2023-02-24T01:39:47;99526.16;;;4.54;82.08
74960;BME280;63518;49.572;1.106;2023-02-24T01:42:17;99529.72;;;4.55;81.26
74960;BME280;63518;49.572;1.106;2023-02-24T01:47:15;99538.72;;;4.55;81.52
74960;BME280;63518;49.572;1.106;2023-02-24T01:49:46;99537.19;;;4.43;81.68
74960;BME280;63518;49.572;1.106;2023-02-24T01:52:19;99511.56;;;4.32;81.61
74960;BME280;63518;49.572;1.106;2023-02-24T01:54:53;99519.53;;;4.50;81.63
74960;BME280;63518;49.572;1.106;2023-02-24T01:57:25;99523.69;;;4.53;81.24
74960;BME280;63518;49.572;1.106;2023-02-24T01:59:56;99498.44;;;4.29;80.83
74960;BME280;63518;49.572;1.106;2023-02-24T02:02:38;99508.81;;;4.44;80.17
74960;BME280;63518;49.572;1.106;2023-02-24T02:05:09;99516.81;;;4.50;81.06
74960;BME280;63518;49.572;1.106;2023-02-24T02:07:38;99506.03;;;4.27;81.37
74960;BME280;63518;49.572;1.106;2023-02-24T02:10:10;99516.97;;;4.27;80.95
74960;BME280;63518;49.572;1.106;2023-02-24T02:12:39;99497.34;;;4.30;81.27
74960;BME280;63518;49.572;1.106;2023-02-24T02:15:17;99492.06;;;4.23;80.38
74960;BME280;63518;49.572;1.106;2023-02-24T02:18:39;99483.22;;;4.16;81.45
74960;BME280;63518;49.572;1.106;2023-02-24T02:21:14;99509.91;;;4.31;80.80
74960;BME280;63518;49.572;1.106;2023-02-24T02:24:20;99501.56;;;4.21;80.66
74960;BME280;63518;49.572;1.106;2023-02-24T02:32:20;99497.91;;;4.44;80.32
74960;BME280;63518;49.572;1.106;2023-02-24T02:35:21;99490.59;;;4.49;80.38
74960;BME280;63518;49.572;1.106;2023-02-24T02:40:54;99472.66;;;4.20;80.24
74960;BME280;63518;49.572;1.106;2023-02-24T02:43:31;99467.91;;;4.32;80.24
74960;BME280;63518;49.572;1.106;2023-02-24T02:46:16;99469.00;;;4.14;79.42
74960;BME280;63518;49.572;1.106;2023-02-24T02:48:47;99470.59;;;4.27;79.32
74960;BME280;63518;49.572;1.106;2023-02-24T02:51:18;99476.59;;;4.29;79.21
74960;BME280;63518;49.572;1.106;2023-02-24T02:53:57;99415.44;;;3.91;80.41
74960;BME280;63518;49.572;1.106;2023-02-24T02:56:32;99438.31;;;4.24;79.93
74960;BME280;63518;49.572;1.106;2023-02-24T02:59:03;99442.88;;;4.35;80.01
74960;BME280;63518;49.572;1.106;2023-02-24T03:01:39;99434.13;;;4.16;80.24
74960;BME280;63518;49.572;1.106;2023-02-24T03:04:12;99439.31;;;4.34;78.54
74960;BME280;63518;49.572;1.106;2023-02-24T03:06:47;99448.19;;;4.58;79.22
74960;BME280;63518;49.572;1.106;2023-02-24T03:09:23;99434.31;;;4.43;78.67
74960;BME280;63518;49.572;1.106;2023-02-24T03:11:58;99441.66;;;4.43;78.53
74960;BME280;63518;49.572;1.106;2023-02-24T03:14:30;99444.94;;;4.61;78.10
74960;BME280;63518;49.572;1.106;2023-02-24T03:17:10;99442.88;;;4.69;77.71
74960;BME280;63518;49.572;1.106;2023-02-24T03:19:43;99421.28;;;4.50;78.16
74960;BME280;63518;49.572;1.106;2023-02-24T03:22:21;99437.00;;;4.60;78.50
74960;BME280;63518;49.572;1.106;2023-02-24T03:24:52;99441.53;;;4.71;77.64
74960;BME280;63518;49.572;1.106;2023-02-24T03:27:44;99428.72;;;4.38;78.45
74960;BME280;63518;49.572;1.106;2023-02-24T03:30:31;99432.16;;;4.84;79.41
74960;BME280;63518;49.572;1.106;2023-02-24T03:33:24;99435.97;;;4.66;78.91
74960;BME280;63518;49.572;1.106;2023-02-24T03:35:56;99392.69;;;4.36;78.80
74960;BME280;63518;49.572;1.106;2023-02-24T03:38:32;99426.13;;;4.43;80.25
74960;BME280;63518;49.572;1.106;2023-02-24T03:41:03;99430.38;;;4.39;80.31
74960;BME280;63518;49.572;1.106;2023-02-24T03:43:44;99403.09;;;4.39;80.79
74960;BME280;63518;49.572;1.106;2023-02-24T03:46:14;99422.19;;;4.56;79.95
74960;BME280;63518;49.572;1.106;2023-02-24T03:48:52;99407.28;;;4.63;79.64
74960;BME280;63518;49.572;1.106;2023-02-24T03:51:22;99408.25;;;4.52;79.86
74960;BME280;63518;49.572;1.106;2023-02-24T03:54:11;99422.16;;;4.73;79.46
74960;BME280;63518;49.572;1.106;2023-02-24T03:57:08;99414.47;;;4.70;79.14
74960;BME280;63518;49.572;1.106;2023-02-24T04:00:16;99406.81;;;4.67;79.00
74960;BME280;63518;49.572;1.106;2023-02-24T04:03:20;99417.78;;;4.72;79.05
74960;BME280;63518;49.572;1.106;2023-02-24T04:06:06;99419.63;;;4.88;78.69
74960;BME280;63518;49.572;1.106;2023-02-24T04:08:51;99425.28;;;4.59;80.66
74960;BME280;63518;49.572;1.106;2023-02-24T04:13:59;99394.94;;;4.22;80.78
74960;BME280;63518;49.572;1.106;2023-02-24T04:16:43;99418.56;;;4.67;80.47
74960;BME280;63518;49.572;1.106;2023-02-24T04:19:16;99419.16;;;4.52;79.88
74960;BME280;63518;49.572;1.106;2023-02-24T04:21:49;99418.56;;;4.33;81.34
74960;BME280;63518;49.572;1.106;2023-02-24T04:24:21;99423.28;;;4.21;81.84
74960;BME280;63518;49.572;1.106;2023-02-24T04:26:50;99423.63;;;4.42;80.98
74960;BME280;63518;49.572;1.106;2023-02-24T04:29:21;99417.09;;;4.09;81.36
74960;BME280;63518;49.572;1.106;2023-02-24T04:32:02;99389.34;;;4.12;81.57
74960;BME280;63518;49.572;1.106;2023-02-24T04:34:33;99426.69;;;4.45;81.31
74960;BME280;63518;49.572;1.106;2023-02-24T04:37:03;99416.25;;;4.25;81.33
74960;BME280;63518;49.572;1.106;2023-02-24T04:39:31;99426.94;;;4.27;80.52
74960;BME280;63518;49.572;1.106;2023-02-24T04:41:59;99391.88;;;4.02;80.64
74960;BME280;63518;49.572;1.106;2023-02-24T04:44:28;99419.38;;;4.34;80.88
74960;BME280;63518;49.572;1.106;2023-02-24T04:46:55;99414.53;;;4.19;81.27
74960;BME280;63518;49.572;1.106;2023-02-24T04:49:23;99412.03;;;4.01;80.85
74960;BME280;63518;49.572;1.106;2023-02-24T04:51:50;99412.28;;;4.16;80.60
74960;BME280;63518;49.572;1.106;2023-02-24T04:54:19;99417.06;;;4.26;81.96
74960;BME280;63518;49.572;1.106;2023-02-24T04:56:49;99390.19;;;4.34;80.91
74960;BME280;63518;49.572;1.106;2023-02-24T04:59:18;99394.03;;;4.17;80.51
74960;BME280;63518;49.572;1.106;2023-02-24T05:01:47;99388.75;;;4.10;80.45
74960;BME280;63518;49.572;1.106;2023-02-24T05:04:20;99378.16;;;4.30;80.49
74960;BME280;63518;49.572;1.106;2023-02-24T05:06:48;99385.19;;;4.09;79.94
74960;BME280;63518;49.572;1.106;2023-02-24T05:09:16;99397.25;;;4.14;79.75
74960;BME280;63518;49.572;1.106;2023-02-24T05:11:48;99394.50;;;4.47;79.57
74960;BME280;63518;49.572;1.106;2023-02-24T05:14:18;99394.28;;;3.98;79.63
74960;BME280;63518;49.572;1.106;2023-02-24T05:16:48;99384.34;;;4.26;79.86
74960;BME280;63518;49.572;1.106;2023-02-24T05:19:17;99377.19;;;4.20;79.97
74960;BME280;63518;49.572;1.106;2023-02-24T05:22:04;99387.19;;;4.14;77.57
74960;BME280;63518;49.572;1.106;2023-02-24T05:24:36;99371.00;;;3.91;79.04
74960;BME280;63518;49.572;1.106;2023-02-24T05:27:04;99360.34;;;3.89;79.80
74960;BME280;63518;49.572;1.106;2023-02-24T05:29:33;99381.75;;;3.97;80.04
74960;BME280;63518;49.572;1.106;2023-02-24T05:32:02;99372.88;;;3.57;79.06
74960;BME280;63518;49.572;1.106;2023-02-24T05:34:34;99386.91;;;3.48;79.57
74960;BME280;63518;49.572;1.106;2023-02-24T05:37:02;99375.34;;;3.41;80.56
74960;BME280;63518;49.572;1.106;2023-02-24T05:39:36;99379.75;;;3.76;79.71
74960;BME280;63518;49.572;1.106;2023-02-24T05:42:04;99372.13;;;3.78;79.28
74960;BME280;63518;49.572;1.106;2023-02-24T05:44:34;99358.25;;;3.63;78.67
74960;BME280;63518;49.572;1.106;2023-02-24T05:47:04;99360.75;;;3.64;78.41
74960;BME280;63518;49.572;1.106;2023-02-24T05:49:34;99347.44;;;3.51;78.50
74960;BME280;63518;49.572;1.106;2023-02-24T05:52:05;99306.03;;;3.20;78.26
74960;BME280;63518;49.572;1.106;2023-02-24T05:54:41;99359.00;;;3.58;77.86
74960;BME280;63518;49.572;1.106;2023-02-24T05:57:13;99357.44;;;3.62;78.34
74960;BME280;63518;49.572;1.106;2023-02-24T05:59:43;99348.63;;;3.72;78.14
74960;BME280;63518;49.572;1.106;2023-02-24T06:02:13;99363.91;;;3.73;78.73
74960;BME280;63518;49.572;1.106;2023-02-24T06:04:44;99347.13;;;3.64;78.27
74960;BME280;63518;49.572;1.106;2023-02-24T06:07:22;99359.53;;;3.72;78.40
74960;BME280;63518;49.572;1.106;2023-02-24T06:09:53;99349.03;;;3.64;77.88
74960;BME280;63518;49.572;1.106;2023-02-24T06:12:26;99349.91;;;3.69;79.79
74960;BME280;63518;49.572;1.106;2023-02-24T06:14:54;99337.94;;;3.53;79.81
74960;BME280;63518;49.572;1.106;2023-02-24T06:17:25;99328.53;;;3.61;77.98
74960;BME280;63518;49.572;1.106;2023-02-24T06:19:54;99333.56;;;3.52;78.09
74960;BME280;63518;49.572;1.106;2023-02-24T06:22:24;99306.06;;;3.37;79.19
74960;BME280;63518;49.572;1.106;2023-02-24T06:24:54;99318.81;;;3.48;79.61
74960;BME280;63518;49.572;1.106;2023-02-24T06:27:23;99327.22;;;3.64;78.60
74960;BME280;63518;49.572;1.106;2023-02-24T06:29:53;99320.66;;;3.31;80.08
74960;BME280;63518;49.572;1.106;2023-02-24T06:32:23;99322.81;;;3.29;79.83
74960;BME280;63518;49.572;1.106;2023-02-24T06:34:52;99310.38;;;3.33;80.76
74960;BME280;63518;49.572;1.106;2023-02-24T06:37:21;99311.66;;;3.31;81.28
74960;BME280;63518;49.572;1.106;2023-02-24T06:39:49;99289.97;;;3.19;80.79
74960;BME280;63518;49.572;1.106;2023-02-24T06:42:18;99319.91;;;3.19;81.21
74960;BME280;63518;49.572;1.106;2023-02-24T06:44:46;99283.75;;;3.07;80.94
74960;BME280;63518;49.572;1.106;2023-02-24T06:47:15;99306.97;;;3.26;80.68
74960;BME280;63518;49.572;1.106;2023-02-24T06:49:44;99315.28;;;3.19;81.11
74960;BME280;63518;49.572;1.106;2023-02-24T06:52:12;99294.06;;;3.05;81.57
74960;BME280;63518;49.572;1.106;2023-02-24T06:54:48;99323.88;;;3.28;81.23
74960;BME280;63518;49.572;1.106;2023-02-24T06:57:18;99331.75;;;3.41;80.31
74960;BME280;63518;49.572;1.106;2023-02-24T06:59:46;99334.97;;;3.55;80.14
74960;BME280;63518;49.572;1.106;2023-02-24T07:02:15;99335.97;;;3.32;80.25
74960;BME280;63518;49.572;1.106;2023-02-24T07:04:44;99314.88;;;3.28;79.75
74960;BME280;63518;49.572;1.106;2023-02-24T07:07:12;99346.13;;;3.53;78.90
74960;BME280;63518;49.572;1.106;2023-02-24T07:09:43;99340.75;;;3.42;79.90
74960;BME280;63518;49.572;1.106;2023-02-24T07:12:12;99334.22;;;3.43;79.03
74960;BME280;63518;49.572;1.106;2023-02-24T07:14:40;99340.19;;;3.57;79.17
74960;BME280;63518;49.572;1.106;2023-02-24T07:17:07;99345.22;;;3.65;79.93
74960;BME280;63518;49.572;1.106;2023-02-24T07:19:44;99334.75;;;3.57;80.27
74960;BME280;63518;49.572;1.106;2023-02-24T07:22:15;99328.03;;;3.47;79.77
74960;BME280;63518;49.572;1.106;2023-02-24T07:24:52;99319.28;;;3.45;79.71
74960;BME280;63518;49.572;1.106;2023-02-24T07:27:27;99329.75;;;3.70;79.86
74960;BME280;63518;49.572;1.106;2023-02-24T07:29:55;99337.03;;;3.98;78.83
74960;BME280;63518;49.572;1.106;2023-02-24T07:32:26;99326.81;;;3.89;79.13
74960;BME280;63518;49.572;1.106;2023-02-24T07:34:54;99323.66;;;3.63;79.01
74960;BME280;63518;49.572;1.106;2023-02-24T07:37:22;99315.38;;;3.92;78.43
74960;BME280;63518;49.572;1.106;2023-02-24T07:39:50;99340.09;;;3.85;79.29
74960;BME280;63518;49.572;1.106;2023-02-24T07:42:21;99288.63;;;3.55;77.47
74960;BME280;63518;49.572;1.106;2023-02-24T07:44:49;99318.13;;;3.75;78.63
74960;BME280;63518;49.572;1.106;2023-02-24T07:47:17;99310.34;;;4.00;77.36
74960;BME280;63518;49.572;1.106;2023-02-24T07:49:44;99311.16;;;4.01;76.48
74960;BME280;63518;49.572;1.106;2023-02-24T07:52:12;99308.69;;;3.99;76.14
74960;BME280;63518;49.572;1.106;2023-02-24T07:54:40;99303.75;;;4.18;75.45
74960;BME280;63518;49.572;1.106;2023-02-24T07:57:07;99315.22;;;3.98;76.00
74960;BME280;63518;49.572;1.106;2023-02-24T07:59:40;99322.31;;;4.38;75.96
74960;BME280;63518;49.572;1.106;2023-02-24T08:02:14;99302.31;;;4.32;75.36
74960;BME280;63518;49.572;1.106;2023-02-24T08:04:42;99318.66;;;4.27;76.05
74960;BME280;63518;49.572;1.106;2023-02-24T08:07:18;99300.81;;;4.03;75.69
74960;BME280;63518;49.572;1.106;2023-02-24T08:09:51;99300.75;;;4.80;74.32
74960;BME280;63518;49.572;1.106;2023-02-24T08:12:39;99307.63;;;4.83;73.36
74960;BME280;63518;49.572;1.106;2023-02-24T08:15:10;99289.50;;;4.33;73.12
74960;BME280;63518;49.572;1.106;2023-02-24T08:17:44;99302.63;;;4.53;71.48
74960;BME280;63518;49.572;1.106;2023-02-24T08:20:14;99296.84;;;4.71;72.37
74960;BME280;63518;49.572;1.106;2023-02-24T08:22:43;99285.66;;;4.73;71.66
74960;BME280;63518;49.572;1.106;2023-02-24T08:25:14;99294.38;;;4.70;70.56
74960;BME280;63518;49.572;1.106;2023-02-24T08:27:50;99290.56;;;4.71;69.39
74960;BME280;63518;49.572;1.106;2023-02-24T08:30:36;99284.72;;;4.62;73.61
74960;BME280;63518;49.572;1.106;2023-02-24T08:33:10;99281.81;;;4.47;68.98
74960;BME280;63518;49.572;1.106;2023-02-24T08:35:42;99289.88;;;4.58;69.82
74960;BME280;63518;49.572;1.106;2023-02-24T08:38:19;99294.66;;;4.95;69.73
74960;BME280;63518;49.572;1.106;2023-02-24T08:40:49;99289.09;;;4.85;70.54
74960;BME280;63518;49.572;1.106;2023-02-24T08:48:45;99289.66;;;4.65;70.67
74960;BME280;63518;49.572;1.106;2023-02-24T08:51:20;99293.28;;;4.71;68.94
74960;BME280;63518;49.572;1.106;2023-02-24T08:53:52;99264.59;;;4.95;68.74
74960;BME280;63518;49.572;1.106;2023-02-24T08:56:23;99298.19;;;4.69;69.41
74960;BME280;63518;49.572;1.106;2023-02-24T08:58:54;99279.91;;;4.96;69.76
74960;BME280;63518;49.572;1.106;2023-02-24T09:01:38;99288.50;;;5.37;69.81
74960;BME280;63518;49.572;1.106;2023-02-24T09:04:11;99301.88;;;5.33;66.53
74960;BME280;63518;49.572;1.106;2023-02-24T09:09:06;99291.66;;;5.24;67.44
74960;BME280;63518;49.572;1.106;2023-02-24T09:11:55;99266.13;;;5.40;67.36
74960;BME280;63518;49.572;1.106;2023-02-24T09:14:26;99283.94;;;5.80;68.47
74960;BME280;63518;49.572;1.106;2023-02-24T09:16:57;99286.22;;;5.61;66.56
74960;BME280;63518;49.572;1.106;2023-02-24T09:19:50;99273.31;;;5.88;65.07
74960;BME280;63518;49.572;1.106;2023-02-24T09:22:18;99268.00;;;6.14;64.53
74960;BME280;63518;49.572;1.106;2023-02-24T09:25:07;99281.25;;;5.90;66.07
74960;BME280;63518;49.572;1.106;2023-02-24T09:30:26;99272.09;;;6.11;65.19
74960;BME280;63518;49.572;1.106;2023-02-24T09:33:15;99269.22;;;6.38;67.33
74960;BME280;63518;49.572;1.106;2023-02-24T09:38:15;99255.91;;;6.62;66.00
74960;BME280;63518;49.572;1.106;2023-02-24T09:40:43;99259.44;;;6.00;63.19
74960;BME280;63518;49.572;1.106;2023-02-24T09:43:18;99263.91;;;6.11;62.86
74960;BME280;63518;49.572;1.106;2023-02-24T09:45:49;99256.94;;;6.46;62.50
74960;BME280;63518;49.572;1.106;2023-02-24T09:48:21;99264.25;;;6.25;63.32
74960;BME280;63518;49.572;1.106;2023-02-24T09:50:51;99264.34;;;6.50;61.30
74960;BME280;63518;49.572;1.106;2023-02-24T09:53:31;99259.34;;;5.47;63.74
74960;BME280;63518;49.572;1.106;2023-02-24T09:56:27;99272.19;;;5.84;61.96
74960;BME280;63518;49.572;1.106;2023-02-24T10:07:06;99254.97;;;7.24;60.67
74960;BME280;63518;49.572;1.106;2023-02-24T10:12:14;99268.28;;;5.70;61.57
74960;BME280;63518;49.572;1.106;2023-02-24T10:17:18;99271.63;;;6.87;59.06
74960;BME280;63518;49.572;1.106;2023-02-24T10:33:27;99238.63;;;5.94;63.29
74960;BME280;63518;49.572;1.106;2023-02-24T10:36:06;99238.09;;;5.97;60.41
74960;BME280;63518;49.572;1.106;2023-02-24T10:38:36;99238.72;;;6.09;62.05
74960;BME280;63518;49.572;1.106;2023-02-24T10:41:03;99233.78;;;6.84;63.24
74960;BME280;63518;49.572;1.106;2023-02-24T10:43:33;99237.72;;;6.30;58.92
74960;BME280;63518;49.572;1.106;2023-02-24T10:46:45;99241.09;;;6.63;59.66
74960;BME280;63518;49.572;1.106;2023-02-24T10:49:09;99233.28;;;6.19;59.64
74960;BME280;63518;49.572;1.106;2023-02-24T10:51:46;99227.88;;;6.34;60.43
74960;BME280;63518;49.572;1.106;2023-02-24T10:54:24;99208.91;;;6.96;63.42
74960;BME280;63518;49.572;1.106;2023-02-24T10:57:14;99221.50;;;7.02;62.96
74960;BME280;63518;49.572;1.106;2023-02-24T10:59:53;99217.06;;;8.02;64.81
74960;BME280;63518;49.572;1.106;2023-02-24T11:02:53;99216.81;;;6.82;57.83
74960;BME280;63518;49.572;1.106;2023-02-24T11:05:37;99213.47;;;8.77;60.57
74960;BME280;63518;49.572;1.106;2023-02-24T11:08:14;99209.28;;;8.90;63.25
74960;BME280;63518;49.572;1.106;2023-02-24T11:13:51;99204.63;;;9.58;61.14
74960;BME280;63518;49.572;1.106;2023-02-24T11:16:51;99194.50;;;8.75;56.76
74960;BME280;63518;49.572;1.106;2023-02-24T11:19:47;99192.09;;;7.94;55.96
74960;BME280;63518;49.572;1.106;2023-02-24T11:22:16;99183.72;;;7.44;56.15
74960;BME280;63518;49.572;1.106;2023-02-24T11:24:46;99172.38;;;7.82;56.26
74960;BME280;63518;49.572;1.106;2023-02-24T11:27:14;99170.47;;;6.50;57.06
74960;BME280;63518;49.572;1.106;2023-02-24T11:40:36;99162.25;;;10.07;48.88
74960;BME280;63518;49.572;1.106;2023-02-24T11:43:15;99152.41;;;7.61;54.12
74960;BME280;63518;49.572;1.106;2023-02-24T11:45:45;99155.28;;;9.09;58.83
74960;BME280;63518;49.572;1.106;2023-02-24T11:50:50;99148.06;;;6.73;58.93
74960;BME280;63518;49.572;1.106;2023-02-24T11:56:19;99139.84;;;7.29;53.06
74960;BME280;63518;49.572;1.106;2023-02-24T12:01:37;99131.50;;;8.89;55.84
74960;BME280;63518;49.572;1.106;2023-02-24T12:06:56;99131.69;;;8.09;55.09
74960;BME280;63518;49.572;1.106;2023-02-24T12:09:25;99128.56;;;7.61;53.92
74960;BME280;63518;49.572;1.106;2023-02-24T12:12:08;99113.25;;;7.45;55.76
74960;BME280;63518;49.572;1.106;2023-02-24T12:14:41;99127.22;;;7.33;56.29
74960;BME280;63518;49.572;1.106;2023-02-24T12:17:19;99120.28;;;7.77;59.75
74960;BME280;63518;49.572;1.106;2023-02-24T12:22:17;99114.41;;;10.46;61.57
74960;BME280;63518;49.572;1.106;2023-02-24T12:24:46;99108.78;;;8.78;58.47
74960;BME280;63518;49.572;1.106;2023-02-24T12:58:34;99043.56;;;11.30;58.25
74960;BME280;63518;49.572;1.106;2023-02-24T13:06:44;99029.16;;;8.29;53.76
74960;BME280;63518;49.572;1.106;2023-02-24T13:14:47;99029.69;;;9.28;47.52
74960;BME280;63518;49.572;1.106;2023-02-24T13:17:16;99031.03;;;7.99;52.66
74960;BME280;63518;49.572;1.106;2023-02-24T13:19:46;99034.34;;;8.75;51.79
74960;BME280;63518;49.572;1.106;2023-02-24T13:24:53;99033.78;;;7.89;54.59
74960;BME280;63518;49.572;1.106;2023-02-24T13:27:27;99023.25;;;8.12;53.56
74960;BME280;63518;49.572;1.106;2023-02-24T13:29:58;99026.03;;;8.07;55.49
74960;BME280;63518;49.572;1.106;2023-02-24T13:34:56;99005.16;;;9.32;52.10
74960;BME280;63518;49.572;1.106;2023-02-24T13:37:27;99013.03;;;8.56;56.31
74960;BME280;63518;49.572;1.106;2023-02-24T13:39:55;99014.44;;;8.54;53.18
74960;BME280;63518;49.572;1.106;2023-02-24T13:42:26;99008.38;;;8.18;54.71
74960;BME280;63518;49.572;1.106;2023-02-24T13:50:51;99008.00;;;8.35;53.11
74960;BME280;63518;49.572;1.106;2023-02-24T13:53:19;98997.22;;;8.04;56.91
74960;BME280;63518;49.572;1.106;2023-02-24T14:01:07;98988.16;;;7.59;57.34
74960;BME280;63518;49.572;1.106;2023-02-24T14:03:36;98985.31;;;8.53;54.01
74960;BME280;63518;49.572;1.106;2023-02-24T14:06:06;98981.44;;;8.93;52.91
74960;BME280;63518;49.572;1.106;2023-02-24T14:08:44;98983.06;;;10.22;52.38
74960;BME280;63518;49.572;1.106;2023-02-24T14:11:13;98989.78;;;8.44;52.73
74960;BME280;63518;49.572;1.106;2023-02-24T14:13:47;98986.75;;;8.11;55.61
74960;BME280;63518;49.572;1.106;2023-02-24T14:16:17;98978.03;;;7.50;54.72
74960;BME280;63518;49.572;1.106;2023-02-24T14:18:56;98975.53;;;8.76;57.33
74960;BME280;63518;49.572;1.106;2023-02-24T14:21:24;98974.13;;;8.44;53.69
74960;BME280;63518;49.572;1.106;2023-02-24T14:26:23;98972.88;;;7.92;54.43
74960;BME280;63518;49.572;1.106;2023-02-24T14:28:54;98957.34;;;7.72;55.63
74960;BME280;63518;49.572;1.106;2023-02-24T14:31:23;98959.31;;;9.27;53.78
74960;BME280;63518;49.572;1.106;2023-02-24T14:33:53;98958.25;;;9.23;52.34
74960;BME280;63518;49.572;1.106;2023-02-24T14:36:22;98949.59;;;9.35;53.28
74960;BME280;63518;49.572;1.106;2023-02-24T14:39:08;98954.34;;;8.13;54.88
74960;BME280;63518;49.572;1.106;2023-02-24T14:41:35;98955.69;;;7.27;58.01
74960;BME280;63518;49.572;1.106;2023-02-24T14:44:25;98957.38;;;7.13;57.51
74960;BME280;63518;49.572;1.106;2023-02-24T14:46:54;98957.06;;;8.18;55.58
74960;BME280;63518;49.572;1.106;2023-02-24T14:49:22;98955.31;;;7.93;56.27
74960;BME280;63518;49.572;1.106;2023-02-24T14:52:38;98947.88;;;7.55;57.90
74960;BME280;63518;49.572;1.106;2023-02-24T14:54:42;98959.00;;;7.73;57.75
74960;BME280;63518;49.572;1.106;2023-02-24T14:57:12;98958.94;;;7.29;59.01
74960;BME280;63518;49.572;1.106;2023-02-24T14:59:41;98943.63;;;7.23;59.97
74960;BME280;63518;49.572;1.106;2023-02-24T15:02:13;98945.72;;;7.41;59.06
74960;BME280;63518;49.572;1.106;2023-02-24T15:04:41;98955.34;;;7.39;59.85
74960;BME280;63518;49.572;1.106;2023-02-24T15:07:17;98946.00;;;7.89;59.43
74960;BME280;63518;49.572;1.106;2023-02-24T15:09:45;98942.09;;;7.56;60.15
74960;BME280;63518;49.572;1.106;2023-02-24T15:15:02;98942.69;;;7.48;60.63
74960;BME280;63518;49.572;1.106;2023-02-24T15:17:31;98943.94;;;8.10;59.89
74960;BME280;63518;49.572;1.106;2023-02-24T15:19:59;98948.47;;;7.41;60.84
74960;BME280;63518;49.572;1.106;2023-02-24T15:22:31;98939.81;;;8.76;57.58
74960;BME280;63518;49.572;1.106;2023-02-24T15:27:50;98938.13;;;7.78;59.69
74960;BME280;63518;49.572;1.106;2023-02-24T15:30:37;98929.13;;;8.98;56.89
74960;BME280;63518;49.572;1.106;2023-02-24T15:33:10;98928.66;;;7.60;58.82
74960;BME280;63518;49.572;1.106;2023-02-24T15:35:45;98933.25;;;8.09;58.69
74960;BME280;63518;49.572;1.106;2023-02-24T15:38:20;98914.53;;;8.45;57.77
74960;BME280;63518;49.572;1.106;2023-02-24T15:40:52;98909.97;;;9.17;55.13
74960;BME280;63518;49.572;1.106;2023-02-24T15:44:05;98913.16;;;10.37;56.22
74960;BME280;63518;49.572;1.106;2023-02-24T15:48:54;98907.09;;;10.03;51.90
74960;BME280;63518;49.572;1.106;2023-02-24T15:51:27;98908.25;;;10.15;52.95
74960;BME280;63518;49.572;1.106;2023-02-24T15:53:55;98903.75;;;9.68;53.04
74960;BME280;63518;49.572;1.106;2023-02-24T15:56:22;98904.56;;;9.07;58.57
74960;BME280;63518;49.572;1.106;2023-02-24T15:58:50;98901.84;;;9.50;53.72
74960;BME280;63518;49.572;1.106;2023-02-24T16:01:17;98900.00;;;9.40;55.77
74960;BME280;63518;49.572;1.106;2023-02-24T16:03:44;98900.59;;;8.41;56.72
74960;BME280;63518;49.572;1.106;2023-02-24T16:06:15;98915.38;;;8.74;57.10
74960;BME280;63518;49.572;1.106;2023-02-24T16:08:44;98906.41;;;9.17;57.06
74960;BME280;63518;49.572;1.106;2023-02-24T16:11:12;98907.28;;;9.74;54.77
74960;BME280;63518;49.572;1.106;2023-02-24T16:13:40;98919.03;;;8.01;58.09